createdAt,value
2023-03-30T00:04:34.788Z,101734.09
2023-03-30T00:09:33.689Z,101734.13
2023-03-30T00:14:32.510Z,101739.41
2023-03-30T00:19:32.802Z,101726.44
2023-03-30T00:24:31.530Z,101722.91
2023-03-30T00:29:30.262Z,101726.34
2023-03-30T00:34:29.096Z,101726.44
2023-03-30T00:39:29.304Z,101740.34
2023-03-30T00:45:13.587Z,101735.88
2023-03-30T00:50:13.825Z,101718.56
2023-03-30T00:55:14.952Z,101718.53
2023-03-30T01:00:15.078Z,101728.03
2023-03-30T01:05:14.261Z,101725.38
2023-03-30T01:10:14.728Z,101723.63
2023-03-30T01:15:16.283Z,101719.22
2023-03-30T01:20:47.589Z,101724.47
2023-03-30T01:26:24.705Z,101723.59
2023-03-30T01:31:50.232Z,101725.31
2023-03-30T01:37:19.517Z,101742.72
2023-03-30T01:42:23.809Z,101739.41
2023-03-30T01:47:29.544Z,101727.41
2023-03-30T01:52:37.096Z,101726.53
2023-03-30T01:57:45.553Z,101743.03
2023-03-30T02:02:49.669Z,101749.06
2023-03-30T02:07:53.860Z,101750.78
2023-03-30T02:12:57.171Z,101755.16
2023-03-30T02:17:55.959Z,101753.47
2023-03-30T02:22:55.459Z,101751.72
2023-03-30T02:27:55.658Z,101754.34
2023-03-30T02:32:57.092Z,101771.66
2023-03-30T02:38:15.026Z,101777.72
2023-03-30T02:43:35.152Z,101777.75
2023-03-30T02:48:42.851Z,101782.09
2023-03-30T02:53:47.249Z,101771.72
2023-03-30T02:59:05.311Z,101782.13
2023-03-30T03:04:06.344Z,101783.84
2023-03-30T03:09:25.143Z,101779.53
2023-03-30T03:14:26.641Z,101795.13
2023-03-30T03:19:26.126Z,101791.66
2023-03-30T03:24:25.455Z,101800.31
2023-03-30T03:29:54.645Z,101794.28
2023-03-30T03:34:53.827Z,101799.47
2023-03-30T03:39:52.785Z,101806.38
2023-03-30T03:44:51.932Z,101805.53
2023-03-30T03:49:52.713Z,101808.09
2023-03-30T03:54:51.743Z,101816.75
2023-03-30T03:59:51.295Z,101814.19
2023-03-30T04:04:50.402Z,101822.81
2023-03-30T04:09:50.623Z,101821.09
2023-03-30T04:15:11.800Z,101832.31
2023-03-30T04:20:34.131Z,101843.59
2023-03-30T04:25:48.232Z,101850.53
2023-03-30T04:31:13.118Z,101847.06
2023-03-30T04:36:31.122Z,101861.78
2023-03-30T04:41:52.384Z,101869.56
2023-03-30T04:47:17.431Z,101884.31
2023-03-30T04:52:37.651Z,101892.94
2023-03-30T04:57:49.619Z,101888.63
2023-03-30T05:03:11.573Z,101892.97
2023-03-30T05:08:29.772Z,101892.09
2023-03-30T05:13:48.626Z,101897.28
2023-03-30T05:19:02.498Z,101890.38
2023-03-30T05:24:36.413Z,101881.72
2023-03-30T05:29:56.608Z,101885.19
2023-03-30T05:35:12.143Z,101892.09
2023-03-30T05:40:29.769Z,101894.66
2023-03-30T05:45:44.262Z,101905.09
2023-03-30T05:51:02.565Z,101904.22
2023-03-30T05:56:17.898Z,101912.81
2023-03-30T06:01:28.609Z,101909.41
2023-03-30T06:06:29.822Z,101912.84
2023-03-30T06:11:29.000Z,101911.13
2023-03-30T06:16:41.127Z,101916.31
2023-03-30T06:21:42.975Z,101920.66
2023-03-30T06:27:03.567Z,101925.00
2023-03-30T06:32:05.006Z,101925.88
2023-03-30T06:37:22.585Z,101934.56
2023-03-30T06:42:22.674Z,101935.44
2023-03-30T06:47:35.966Z,101947.53
2023-03-30T06:52:36.399Z,101945.78
2023-03-30T06:57:36.141Z,101949.19
2023-03-30T07:02:36.857Z,101936.09
2023-03-30T07:07:46.708Z,101941.22
2023-03-30T07:12:45.722Z,101941.16
2023-03-30T07:17:53.632Z,101945.50
2023-03-30T07:22:53.150Z,101950.66
2023-03-30T07:27:52.155Z,101937.59
2023-03-30T07:32:53.185Z,101924.38
2023-03-30T07:38:02.939Z,101927.78
2023-03-30T07:43:07.008Z,101924.03
2023-03-30T07:48:07.894Z,101931.44
2023-03-30T07:53:07.463Z,101935.66
2023-03-30T07:58:07.910Z,101939.94
2023-03-30T08:03:08.600Z,101916.94
2023-03-30T08:08:08.009Z,101914.19
2023-03-30T08:13:08.072Z,101907.75
2023-03-30T08:18:08.900Z,101911.97
2023-03-30T08:23:09.354Z,101898.41
2023-03-30T08:28:09.117Z,101900.81
2023-03-30T08:33:10.218Z,101896.66
2023-03-30T08:38:10.035Z,101890.72
2023-03-30T08:43:23.147Z,101880.16
2023-03-30T08:48:26.238Z,101881.03
2023-03-30T08:53:25.097Z,101872.00
2023-03-30T08:58:34.491Z,101868.97
2023-03-30T09:03:40.894Z,101857.31
2023-03-30T09:08:40.451Z,101839.63
2023-03-30T09:13:42.361Z,101837.97
2023-03-30T09:18:44.761Z,101826.69
2023-03-30T09:23:46.545Z,101814.06
2023-03-30T09:28:55.198Z,101805.47
2023-03-30T09:34:03.632Z,101799.69
2023-03-30T09:39:10.483Z,101790.72
2023-03-30T09:44:20.605Z,101784.19
2023-03-30T09:49:22.900Z,101769.16
2023-03-30T09:54:25.105Z,101784.63
2023-03-30T10:00:00.604Z,101773.59
2023-03-30T10:05:05.619Z,101754.72
2023-03-30T10:10:29.110Z,101742.69
2023-03-30T10:15:46.541Z,101739.88
2023-03-30T10:20:51.564Z,101727.22
2023-03-30T10:25:52.301Z,101730.81
2023-03-30T10:30:54.949Z,101715.25
2023-03-30T10:36:00.750Z,101715.34
2023-03-30T10:41:10.878Z,101713.13
2023-03-30T10:46:20.202Z,101690.63
2023-03-30T10:51:32.874Z,101680.69
2023-03-30T10:56:36.408Z,101669.28
2023-03-30T11:02:33.589Z,101665.03
2023-03-30T11:08:36.076Z,101651.09
2023-03-30T11:14:06.216Z,101637.94
2023-03-30T11:19:11.492Z,101616.72
2023-03-30T11:24:17.395Z,101619.38
2023-03-30T11:29:29.299Z,101605.88
2023-03-30T11:34:43.921Z,101602.50
2023-03-30T11:40:13.773Z,101601.88
2023-03-30T11:45:21.690Z,101577.44
2023-03-30T11:50:32.318Z,101574.75
2023-03-30T11:55:52.309Z,101566.25
2023-03-30T12:07:56.687Z,101557.09
2023-03-30T12:12:57.997Z,101534.75
2023-03-30T12:18:04.826Z,101544.44
2023-03-30T12:23:15.153Z,101528.09
2023-03-30T12:28:17.583Z,101516.78
2023-03-30T12:33:27.746Z,101513.38
2023-03-30T12:38:30.179Z,101528.13
2023-03-30T12:43:40.611Z,101517.75
2023-03-30T12:48:50.413Z,101512.69
2023-03-30T12:54:23.315Z,101489.50
2023-03-30T12:59:57.088Z,101481.84
2023-03-30T13:04:56.908Z,101472.31
2023-03-30T13:09:59.820Z,101456.53
2023-03-30T13:15:07.287Z,101448.53
2023-03-30T13:20:29.961Z,101444.41
2023-03-30T13:25:42.013Z,101441.34
2023-03-30T13:30:50.400Z,101437.50
2023-03-30T13:35:59.092Z,101426.38
2023-03-30T13:41:10.861Z,101419.63
2023-03-30T13:46:19.845Z,101424.66
2023-03-30T13:51:22.209Z,101410.31
2023-03-30T13:56:22.758Z,101402.34
2023-03-30T14:01:25.778Z,101397.44
2023-03-30T14:06:26.890Z,101400.78
2023-03-30T14:11:34.645Z,101387.53
2023-03-30T14:16:38.653Z,101382.97
2023-03-30T14:21:47.501Z,101382.72
2023-03-30T14:26:49.179Z,101393.59
2023-03-30T14:32:06.597Z,101372.97
2023-03-30T14:37:09.752Z,101367.97
2023-03-30T14:42:16.361Z,101375.53
2023-03-30T14:47:22.747Z,101374.28
2023-03-30T14:52:24.072Z,101365.22
2023-03-30T14:57:26.739Z,101366.88
2023-03-30T15:02:30.136Z,101359.81
2023-03-30T15:07:32.666Z,101353.16
2023-03-30T15:12:35.652Z,101343.88
2023-03-30T15:17:39.060Z,101338.47
2023-03-30T15:22:40.243Z,101340.66
2023-03-30T15:27:41.172Z,101335.81
2023-03-30T15:32:42.372Z,101325.84
2023-03-30T15:37:54.935Z,101322.38
2023-03-30T15:43:12.985Z,101316.03
2023-03-30T15:48:13.749Z,101308.00
2023-03-30T15:53:19.412Z,101302.72
2023-03-30T15:58:35.764Z,101302.47
2023-03-30T16:03:41.611Z,101296.25
2023-03-30T16:08:43.635Z,101290.31
2023-03-30T16:13:45.770Z,101284.53
2023-03-30T16:18:46.762Z,101283.56
2023-03-30T16:23:49.328Z,101288.03
2023-03-30T16:28:52.576Z,101284.06
2023-03-30T16:33:54.673Z,101282.06
2023-03-30T16:38:54.150Z,101281.66
2023-03-30T16:43:53.361Z,101284.03
2023-03-30T16:48:54.790Z,101268.38
2023-03-30T16:53:53.819Z,101278.66
2023-03-30T16:58:52.868Z,101281.03
2023-03-30T17:04:09.790Z,101275.41
2023-03-30T17:09:13.959Z,101266.91
2023-03-30T17:14:13.310Z,101272.41
2023-03-30T17:19:16.031Z,101268.28
2023-03-30T17:24:50.277Z,101280.06
2023-03-30T17:29:53.376Z,101275.78
2023-03-30T17:34:53.716Z,101269.47
2023-03-30T17:39:54.649Z,101265.53
2023-03-30T17:45:02.670Z,101257.13
2023-03-30T17:50:04.239Z,101251.97
2023-03-30T17:55:03.709Z,101256.13
2023-03-30T18:00:06.279Z,101249.63
2023-03-30T18:05:10.123Z,101247.50
2023-03-30T18:10:21.916Z,101245.38
2023-03-30T18:15:25.565Z,101251.19
2023-03-30T18:20:32.598Z,101246.50
2023-03-30T18:25:32.983Z,101251.59
2023-03-30T18:30:33.641Z,101245.97
2023-03-30T18:35:35.835Z,101252.34
2023-03-30T18:40:37.828Z,101240.91
2023-03-30T18:45:38.897Z,101237.91
2023-03-30T18:50:41.351Z,101244.34
2023-03-30T18:55:42.358Z,101250.25
2023-03-30T19:00:41.615Z,101241.97
2023-03-30T19:05:43.334Z,101252.53
2023-03-30T19:10:44.541Z,101233.94
2023-03-30T19:15:45.275Z,101236.69
2023-03-30T19:20:46.519Z,101239.72
2023-03-30T19:25:46.479Z,101231.09
2023-03-30T19:30:46.347Z,101224.00
2023-03-30T19:35:47.221Z,101208.34
2023-03-30T19:40:46.590Z,101198.66
2023-03-30T19:45:45.526Z,101183.66
2023-03-30T19:50:44.626Z,101180.75
2023-03-30T19:55:46.190Z,101165.13
2023-03-30T20:01:15.463Z,101162.28
2023-03-30T20:06:12.949Z,101149.94
2023-03-30T20:11:13.711Z,101150.03
2023-03-30T20:16:14.356Z,101148.31
2023-03-30T20:21:15.952Z,101138.22
2023-03-30T20:26:19.367Z,101141.81
2023-03-30T20:31:18.506Z,101138.44
2023-03-30T20:36:17.481Z,101121.94
2023-03-30T20:41:21.873Z,101115.72
2023-03-30T20:46:22.761Z,101120.38
2023-03-30T20:51:24.028Z,101111.25
2023-03-30T20:56:28.027Z,101120.22
2023-03-30T21:01:29.694Z,101109.97
2023-03-30T21:06:30.634Z,101113.69
2023-03-30T21:11:33.638Z,101097.63
2023-03-30T21:16:32.978Z,101100.06
2023-03-30T21:21:33.906Z,101091.03
2023-03-30T21:26:34.499Z,101097.09
2023-03-30T21:31:33.488Z,101090.03
2023-03-30T21:36:32.492Z,101080.34
2023-03-30T21:41:33.259Z,101059.34
2023-03-30T21:46:33.551Z,101050.72
2023-03-30T21:51:32.679Z,101049.06
2023-03-30T21:56:32.460Z,101042.19
2023-03-30T22:01:31.548Z,101037.84
2023-03-30T22:06:32.427Z,101034.38
2023-03-30T22:11:31.486Z,101036.06
2023-03-30T22:16:33.325Z,101044.91
2023-03-30T22:21:35.653Z,101044.19
2023-03-30T22:26:35.858Z,101041.06
2023-03-30T22:31:34.752Z,101026.72
2023-03-30T22:36:34.960Z,101036.53
2023-03-30T22:41:33.743Z,101017.66
2023-03-30T22:46:32.679Z,101015.56
2023-03-30T22:51:34.070Z,101007.31
2023-03-30T22:56:35.096Z,100990.09
2023-03-30T23:01:35.296Z,100975.81
2023-03-30T23:06:36.468Z,100965.72
2023-03-30T23:11:53.782Z,100966.00
2023-03-30T23:17:00.863Z,100947.09
2023-03-30T23:21:59.814Z,100938.56
2023-03-30T23:27:01.052Z,100934.31
2023-03-30T23:32:00.025Z,100925.41
2023-03-30T23:37:02.346Z,100913.19
2023-03-30T23:42:05.036Z,100908.28
2023-03-30T23:47:03.880Z,100903.75
2023-03-30T23:52:02.608Z,100903.53
2023-03-30T23:57:01.916Z,100894.72
